This is the latest recevied weather packets stored in our database for station/object IW4ENL-7. If no packets are shown the sender has not sent any weather packets the latest 1 day(s).
| Time | Temp. | Humidity | Pressure | Rain* | Wind** | Luminosity | Snow |
|---|---|---|---|---|---|---|---|
| 1777956620 | 10.56° C | 54% | 961 hPa | - | 0.45 m/s, 72° | - | - |
| 1777956437 | 10.56° C | 55% | 961 hPa | - | 0.89 m/s, 126° | - | - |
| 1777956254 | 10.56° C | 55% | 961 hPa | - | 1.34 m/s, 126° | - | - |
| 1777956071 | 10.56° C | 53% | 961 hPa | - | 0.89 m/s, 98° | - | - |
| 1777955888 | 10.56° C | 53% | 961 hPa | - | 0 m/s | - | - |
| 1777955705 | 10.56° C | 53% | 961 hPa | - | 0.45 m/s, 40° | - | - |
| 1777955340 | 10.56° C | 54% | 961 hPa | - | 0 m/s | - | - |
| 1777955157 | 10.56° C | 53% | 961 hPa | - | 0 m/s | - | - |
| 1777954791 | 10.56° C | 55% | 961 hPa | - | 0.89 m/s, 143° | - | - |
| 1777954608 | 10.56° C | 54% | 961 hPa | - | 0.45 m/s, 90° | - | - |
| 1777954426 | 11.11° C | 54% | 961 hPa | - | 0.89 m/s, 126° | - | - |
| 1777954243 | 11.11° C | 53% | 961 hPa | - | 0 m/s | - | - |
| 1777954060 | 11.11° C | 52% | 961 hPa | - | 0.45 m/s, 45° | - | - |
| 1777953877 | 11.67° C | 53% | 961 hPa | - | 1.34 m/s, 112° | - | - |
| 1777953694 | 11.67° C | 52% | 961 hPa | - | 0 m/s | - | - |
| 1777953511 | 11.67° C | 52% | 961 hPa | - | 0.45 m/s, 11° | - | - |
| 1777953328 | 11.67° C | 53% | 961 hPa | - | 0.45 m/s, 157° | - | - |
| 1777953146 | 11.67° C | 53% | 961 hPa | - | 0.89 m/s, 189° | - | - |
| 1777952963 | 11.67° C | 52% | 961 hPa | - | 0.45 m/s, 217° | - | - |
| 1777952780 | 11.67° C | 52% | 961 hPa | - | 0.45 m/s, 225° | - | - |
| 1777952597 | 11.67° C | 52% | 961 hPa | - | 0.89 m/s, 257° | - | - |
| 1777952231 | 12.22° C | 52% | 961 hPa | - | 0.45 m/s, 185° | - | - |
| 1777952048 | 12.22° C | 52% | 961 hPa | - | 0.45 m/s, 135° | - | - |
| 1777951500 | 12.22° C | 52% | 961 hPa | - | 0.45 m/s, 126° | - | - |
| 1777951317 | 12.22° C | 52% | 961 hPa | - | 0.89 m/s, 157° | - | - |
* Rain since midnight (hover to see other rain measurements)
** Current wind speed in m/s (hover to see current wind gust speed)